createdAt,value
2018-04-10T00:00:46.510Z,37.50
2018-04-10T00:01:46.569Z,35.80
2018-04-10T00:02:46.352Z,36.50
2018-04-10T00:03:46.499Z,35.30
2018-04-10T00:04:46.185Z,37.00
2018-04-10T00:05:46.125Z,35.40
2018-04-10T00:06:46.029Z,35.20
2018-04-10T00:07:45.993Z,37.30
2018-04-10T00:08:45.892Z,36.50
2018-04-10T00:09:45.914Z,37.50
2018-04-10T00:10:45.730Z,35.90
2018-04-10T00:13:27.874Z,37.10
2018-04-10T00:14:27.816Z,35.40
2018-04-10T00:15:27.660Z,36.50
2018-04-10T00:16:27.617Z,38.40
2018-04-10T00:17:27.473Z,36.40
2018-04-10T00:42:49.712Z,37.60
2018-04-10T00:43:49.451Z,38.50
2018-04-10T00:44:49.427Z,38.70
2018-04-10T00:45:49.297Z,37.40
2018-04-10T00:46:49.355Z,37.80
2018-04-10T00:47:49.143Z,38.10
2018-04-10T00:48:49.130Z,37.80
2018-04-10T00:49:49.069Z,37.50
2018-04-10T00:50:48.947Z,38.70
2018-04-10T00:51:48.842Z,38.00
2018-04-10T00:52:48.854Z,37.50
2018-04-10T00:53:48.666Z,38.10
2018-04-10T00:54:48.658Z,37.70
2018-04-10T00:55:48.513Z,37.50
2018-04-10T00:56:48.495Z,38.90
2018-04-10T00:57:48.356Z,38.30
2018-04-10T00:58:48.469Z,38.90
2018-04-10T00:59:48.204Z,38.30
2018-04-10T01:00:48.184Z,38.80
2018-04-10T01:01:48.041Z,37.60
2018-04-10T01:02:48.053Z,37.50
2018-04-10T01:03:47.892Z,37.60
2018-04-10T01:04:47.814Z,37.50
2018-04-10T01:05:47.730Z,37.50
2018-04-10T01:06:47.709Z,37.50
2018-04-10T01:07:47.589Z,38.00
2018-04-10T01:08:47.522Z,38.50
2018-04-10T01:09:47.414Z,36.70
2018-04-10T01:10:47.433Z,40.20
2018-04-10T01:11:47.263Z,37.00
2018-04-10T01:12:47.305Z,37.20
2018-04-10T01:13:47.100Z,36.30
2018-04-10T01:14:47.153Z,38.90
2018-04-10T01:15:46.952Z,37.10
2018-04-10T01:16:46.964Z,38.30
2018-04-10T01:17:46.808Z,37.70
2018-04-10T01:18:46.768Z,38.10
2018-04-10T01:19:46.633Z,38.00
2018-04-10T01:20:46.682Z,37.20
2018-04-10T01:21:46.474Z,36.70
2018-04-10T01:22:46.519Z,36.20
2018-04-10T01:23:46.324Z,36.20
2018-04-10T01:24:46.298Z,35.10
2018-04-10T01:25:46.162Z,37.40
2018-04-10T01:26:46.204Z,37.00
2018-04-10T01:27:46.023Z,36.50
2018-04-10T01:28:48.889Z,34.80
2018-04-10T01:29:46.958Z,32.60
2018-04-10T01:30:45.776Z,38.10
2018-04-10T01:31:45.696Z,35.70
2018-04-10T01:32:45.772Z,36.00
2018-04-10T01:33:45.542Z,37.10
2018-04-10T01:34:45.552Z,37.10
2018-04-10T01:35:45.383Z,37.20
2018-04-10T01:36:45.354Z,36.60
2018-04-10T01:37:45.219Z,36.20
2018-04-10T01:38:45.198Z,36.90
2018-04-10T01:39:45.066Z,37.30
2018-04-10T01:40:45.081Z,36.70
2018-04-10T01:41:44.904Z,39.70
2018-04-10T01:44:26.834Z,36.70
2018-04-10T01:45:26.752Z,35.80
2018-04-10T01:46:26.653Z,37.50
2018-04-10T01:47:26.686Z,37.10
2018-04-10T01:48:26.580Z,36.80
2018-04-10T01:49:26.499Z,36.90
2018-04-10T01:50:26.343Z,37.70
2018-04-10T01:53:33.848Z,36.80
2018-04-10T01:54:54.721Z,36.10
2018-04-10T01:55:54.636Z,36.70
2018-04-10T01:56:33.709Z,36.00
2018-04-10T01:57:33.506Z,35.50
2018-04-10T01:58:33.520Z,35.50
2018-04-10T01:59:33.374Z,36.40
2018-04-10T02:12:48.708Z,36.40
2018-04-10T02:13:48.479Z,38.70
2018-04-10T02:14:48.509Z,37.40
2018-04-10T02:15:48.333Z,36.50
2018-04-10T02:16:48.277Z,36.80
2018-04-10T02:17:48.176Z,36.30
2018-04-10T02:18:48.192Z,36.80
2018-04-10T02:19:48.006Z,36.40
2018-04-10T02:20:48.040Z,37.20
2018-04-10T02:21:47.849Z,37.40
2018-04-10T02:22:47.829Z,37.60
2018-04-10T02:23:47.699Z,35.30
2018-04-10T02:26:29.849Z,37.10
2018-04-10T02:27:29.824Z,36.90
2018-04-10T02:28:29.670Z,36.70
2018-04-10T02:29:29.625Z,37.00
2018-04-10T02:30:29.532Z,38.50
2018-04-10T02:31:29.450Z,37.50
2018-04-10T02:32:29.375Z,37.40
2018-04-10T02:33:29.289Z,36.30
2018-04-10T02:34:29.193Z,36.80
2018-04-10T02:35:29.196Z,37.40
2018-04-10T02:36:29.077Z,37.60
2018-04-10T02:37:29.272Z,38.10
2018-04-10T02:38:28.896Z,39.10
2018-04-10T02:41:10.848Z,40.00
2018-04-10T02:42:31.730Z,38.80
2018-04-10T02:43:31.767Z,37.80
2018-04-10T02:44:10.593Z,39.00
2018-04-10T02:45:10.512Z,38.50
2018-04-10T02:46:10.562Z,38.00
2018-04-10T02:47:10.353Z,38.50
2018-04-10T02:48:10.404Z,37.60
2018-04-10T02:49:10.199Z,39.70
2018-04-10T02:50:10.215Z,38.20
2018-04-10T02:51:10.077Z,39.20
2018-04-10T02:52:10.018Z,37.70
2018-04-10T02:53:09.884Z,38.60
2018-04-10T02:54:09.932Z,38.90
2018-04-10T02:55:09.730Z,38.00
2018-04-10T02:56:09.742Z,38.20
2018-04-10T02:57:09.583Z,38.70
2018-04-10T02:58:09.548Z,38.50
2018-04-10T02:59:09.417Z,38.10
2018-04-10T03:00:09.459Z,37.80
2018-04-10T03:01:09.264Z,38.80
2018-04-10T03:02:09.307Z,37.80
2018-04-10T03:03:09.143Z,38.00
2018-04-10T03:04:09.082Z,37.90
2018-04-10T03:05:08.946Z,38.50
2018-04-10T03:06:08.992Z,36.30
2018-04-10T03:07:08.829Z,36.90
2018-04-10T03:08:08.788Z,37.10
2018-04-10T03:09:08.630Z,37.40
2018-04-10T03:10:08.599Z,37.10
2018-04-10T03:11:08.467Z,38.40
2018-04-10T03:12:08.548Z,35.70
2018-04-10T03:13:08.328Z,37.00
2018-04-10T03:14:08.313Z,37.60
2018-04-10T03:15:08.162Z,37.50
2018-04-10T03:16:08.120Z,36.40
2018-04-10T03:17:08.013Z,36.90
2018-04-10T03:18:07.965Z,37.00
2018-04-10T03:19:07.835Z,37.20
2018-04-10T03:20:07.842Z,36.30
2018-04-10T03:21:07.780Z,36.90
2018-04-10T03:22:07.653Z,35.80
2018-04-10T03:23:07.540Z,36.70
2018-04-10T03:24:07.567Z,37.10
2018-04-10T03:25:07.367Z,35.10
2018-04-10T03:26:07.371Z,35.60
2018-04-10T03:27:07.209Z,35.50
2018-04-10T03:28:07.229Z,37.30
2018-04-10T03:29:07.073Z,35.40
2018-04-10T03:30:07.098Z,35.30
2018-04-10T03:31:06.896Z,35.50
2018-04-10T03:32:07.035Z,35.40
2018-04-10T03:33:06.781Z,36.00
2018-04-10T03:34:06.708Z,35.00
2018-04-10T03:35:06.579Z,35.00
2018-04-10T03:36:06.624Z,34.00
2018-04-10T03:37:06.440Z,33.70
2018-04-10T03:38:06.459Z,35.10
2018-04-10T03:39:06.279Z,34.80
2018-04-10T03:40:06.244Z,35.40
2018-04-10T03:41:06.115Z,34.60
2018-04-10T03:42:06.155Z,34.10
2018-04-10T03:43:05.951Z,34.40
2018-04-10T03:44:05.986Z,36.50
2018-04-10T03:45:05.811Z,35.60
2018-04-10T03:46:05.762Z,35.50
2018-04-10T03:47:05.636Z,35.00
2018-04-10T03:48:05.686Z,34.40
2018-04-10T03:49:05.626Z,34.90
2018-04-10T03:51:47.343Z,34.40
2018-04-10T03:52:47.404Z,36.70
2018-04-10T03:53:47.198Z,34.60
2018-04-10T03:54:47.230Z,35.60
2018-04-10T03:55:47.032Z,34.60
2018-04-10T03:56:46.995Z,34.80
2018-04-10T03:57:46.874Z,33.30
2018-04-10T03:58:46.911Z,34.60
2018-04-10T03:59:46.739Z,33.20
2018-04-10T04:03:31.880Z,33.10
2018-04-10T04:04:31.835Z,33.40
2018-04-10T04:05:31.708Z,33.80
2018-04-10T04:06:31.701Z,34.10
2018-04-10T04:07:31.526Z,34.80
2018-04-10T04:08:31.553Z,35.80
2018-04-10T04:09:31.389Z,34.10
2018-04-10T04:10:31.419Z,33.90
2018-04-10T04:11:31.240Z,33.50
2018-04-10T04:12:31.244Z,36.90
2018-04-10T04:13:31.055Z,35.20
2018-04-10T04:14:31.011Z,35.80
2018-04-10T04:15:30.900Z,36.10
2018-04-10T04:16:30.948Z,32.90
2018-04-10T04:17:30.744Z,33.10
2018-04-10T04:18:30.757Z,33.10
2018-04-10T04:19:30.601Z,34.90
2018-04-10T04:20:30.566Z,33.60
2018-04-10T04:21:30.431Z,34.80
2018-04-10T04:22:30.475Z,33.10
2018-04-10T04:23:30.277Z,33.40
2018-04-10T04:24:30.320Z,33.70
2018-04-10T04:25:30.116Z,33.70
2018-04-10T04:26:30.193Z,32.00
2018-04-10T04:27:29.953Z,32.80
2018-04-10T04:28:30.016Z,32.10
2018-04-10T04:29:29.812Z,32.50
2018-04-10T04:30:29.853Z,33.40
2018-04-10T04:31:29.649Z,32.10
2018-04-10T04:32:29.620Z,33.50
2018-04-10T04:33:29.488Z,31.60
2018-04-10T04:34:29.537Z,31.70
2018-04-10T04:35:29.346Z,32.40
2018-04-10T04:36:29.340Z,35.00
2018-04-10T04:37:29.166Z,31.90
2018-04-10T04:38:29.154Z,32.00
2018-04-10T04:39:29.018Z,31.60
2018-04-10T04:40:28.996Z,32.70
2018-04-10T04:41:28.844Z,31.20
2018-04-10T04:44:10.913Z,33.00
2018-04-10T04:45:10.933Z,32.10
2018-04-10T04:46:10.734Z,33.90
2018-04-10T05:12:32.312Z,32.70
2018-04-10T05:13:32.348Z,32.10
2018-04-10T05:14:32.147Z,32.40
2018-04-10T05:15:32.163Z,32.60
2018-04-10T05:16:31.999Z,31.50
2018-04-10T05:17:32.042Z,31.80
2018-04-10T05:18:31.834Z,32.20
2018-04-10T05:19:31.884Z,31.40
2018-04-10T05:20:31.673Z,31.90
2018-04-10T05:21:31.718Z,32.00
2018-04-10T05:22:31.638Z,31.60
2018-04-10T05:23:31.567Z,32.20
2018-04-10T05:24:31.343Z,34.10
2018-04-10T05:25:31.407Z,30.70
2018-04-10T05:26:31.193Z,32.00
2018-04-10T05:27:31.240Z,31.30
2018-04-10T05:28:31.044Z,31.90
2018-04-10T05:29:31.021Z,31.20
2018-04-10T05:30:30.892Z,30.80
2018-04-10T05:31:30.827Z,31.50
2018-04-10T05:32:30.734Z,32.30
2018-04-10T05:33:30.777Z,32.40
2018-04-10T05:34:30.569Z,30.00
2018-04-10T05:35:30.556Z,31.40
2018-04-10T05:36:30.428Z,30.70
2018-04-10T05:37:30.387Z,32.10
2018-04-10T05:38:30.256Z,30.50
2018-04-10T05:39:30.268Z,31.10
2018-04-10T05:40:30.088Z,31.00
2018-04-10T05:41:30.077Z,30.60
2018-04-10T05:42:29.932Z,29.50
2018-04-10T05:43:30.028Z,30.60
2018-04-10T05:44:29.770Z,30.40
2018-04-10T05:45:29.801Z,32.10
2018-04-10T05:48:38.392Z,29.80
2018-04-10T05:49:59.274Z,30.60
2018-04-10T05:50:38.221Z,31.80
2018-04-10T05:51:38.235Z,28.80
2018-04-10T05:52:38.054Z,29.30
2018-04-10T05:53:38.076Z,27.80
2018-04-10T05:54:37.898Z,29.40
2018-04-10T05:55:37.955Z,27.50
2018-04-10T05:56:37.754Z,31.20
2018-04-10T05:57:37.763Z,28.60
2018-04-10T05:58:37.617Z,30.60
2018-04-10T05:59:37.580Z,28.30
2018-04-10T06:00:37.426Z,30.10
2018-04-10T06:01:37.482Z,28.20
2018-04-10T06:02:37.277Z,29.60
2018-04-10T06:03:37.318Z,27.20
2018-04-10T06:04:37.129Z,28.80
2018-04-10T06:05:37.097Z,27.70
2018-04-10T06:06:36.966Z,28.40
2018-04-10T06:07:37.009Z,32.60
2018-04-10T06:08:36.828Z,28.70
2018-04-10T06:09:36.843Z,32.80
2018-04-10T06:10:36.658Z,31.90
2018-04-10T06:11:36.622Z,27.60
2018-04-10T06:12:36.489Z,26.90
2018-04-10T06:13:36.538Z,26.60
2018-04-10T06:14:36.346Z,28.30
2018-04-10T06:15:36.340Z,25.70
2018-04-10T06:16:36.185Z,26.10
2018-04-10T06:17:36.151Z,25.80
2018-04-10T06:18:36.007Z,26.70
2018-04-10T06:19:36.110Z,24.70
2018-04-10T06:20:35.909Z,24.70
2018-04-10T06:21:35.863Z,23.80
2018-04-10T06:22:35.702Z,28.60
2018-04-10T06:23:35.690Z,27.10
2018-04-10T06:24:35.546Z,26.30
2018-04-10T06:25:35.515Z,24.40
2018-04-10T06:26:35.384Z,22.80
2018-04-10T06:27:35.426Z,23.70
2018-04-10T06:28:35.260Z,23.50
2018-04-10T06:29:35.239Z,24.60
2018-04-10T06:30:35.102Z,27.60
2018-04-10T06:31:35.120Z,23.20
2018-04-10T06:32:34.944Z,23.70
2018-04-10T06:33:34.923Z,26.30
2018-04-10T06:34:34.764Z,21.50
2018-04-10T06:35:34.763Z,24.30
2018-04-10T06:36:34.601Z,22.30
2018-04-10T06:37:34.652Z,23.20
2018-04-10T06:38:34.446Z,24.80
2018-04-10T06:39:34.456Z,23.40
2018-04-10T06:40:34.302Z,23.20
2018-04-10T06:41:34.282Z,24.20
2018-04-10T06:42:34.138Z,23.90
2018-04-10T06:43:34.191Z,22.00
2018-04-10T06:44:33.972Z,24.10
2018-04-10T06:45:34.023Z,22.90
2018-04-10T06:46:33.858Z,21.90
2018-04-10T06:47:33.837Z,21.30
2018-04-10T06:48:33.706Z,21.90
2018-04-10T06:49:33.698Z,20.70
2018-04-10T06:50:33.516Z,21.10
2018-04-10T06:51:33.552Z,20.90
2018-04-10T06:52:33.344Z,19.70
2018-04-10T06:53:33.288Z,19.30
2018-04-10T06:54:33.186Z,19.30
2018-04-10T06:55:33.252Z,20.00
2018-04-10T06:56:33.052Z,20.40
2018-04-10T06:57:32.976Z,18.30
2018-04-10T06:58:32.882Z,18.90
2018-04-10T06:59:32.848Z,17.80
2018-04-10T07:00:32.714Z,18.30
2018-04-10T07:01:32.756Z,19.80
2018-04-10T07:02:32.697Z,19.20
2018-04-10T07:03:32.564Z,18.10
2018-04-10T07:04:32.428Z,20.40
2018-04-10T07:05:32.382Z,19.30
2018-04-10T07:06:32.258Z,18.50
2018-04-10T07:07:32.331Z,18.80
2018-04-10T07:08:32.084Z,18.00
2018-04-10T07:09:32.118Z,20.00
2018-04-10T07:10:32.425Z,18.60
2018-04-10T07:11:31.943Z,18.50
2018-04-10T07:12:31.798Z,16.40
2018-04-10T07:13:31.834Z,17.30
2018-04-10T07:14:31.628Z,16.10
2018-04-10T07:15:31.614Z,15.70
2018-04-10T07:16:31.590Z,18.10
2018-04-10T07:17:31.472Z,17.70
2018-04-10T07:18:31.303Z,16.10
2018-04-10T07:19:31.346Z,17.00
2018-04-10T07:20:31.162Z,15.30
2018-04-10T07:21:31.138Z,17.10
2018-04-10T07:22:31.040Z,15.40
2018-04-10T07:23:31.068Z,15.60
2018-04-10T07:24:30.836Z,15.80
2018-04-10T07:25:30.861Z,15.30
2018-04-10T07:26:30.687Z,15.90
2018-04-10T07:27:30.705Z,16.90
2018-04-10T07:28:30.538Z,14.10
2018-04-10T07:29:30.466Z,17.50
2018-04-10T07:30:30.375Z,15.80
2018-04-10T07:31:30.296Z,14.00
2018-04-10T07:32:30.223Z,14.00
2018-04-10T07:33:30.178Z,18.20
2018-04-10T07:34:30.066Z,15.00
2018-04-10T07:35:29.988Z,14.70
2018-04-10T07:36:29.911Z,17.10
2018-04-10T07:37:29.885Z,13.60
2018-04-10T07:38:29.769Z,15.60
2018-04-10T07:39:29.687Z,16.80
2018-04-10T07:40:29.600Z,18.50
2018-04-10T07:41:29.534Z,14.20
2018-04-10T07:42:29.439Z,15.60
2018-04-10T07:43:29.410Z,15.40
2018-04-10T07:44:29.422Z,16.20
2018-04-10T07:45:29.221Z,16.00
2018-04-10T07:46:29.142Z,16.60
2018-04-10T07:47:29.062Z,14.60
2018-04-10T07:48:28.995Z,18.80
2018-04-10T07:49:28.948Z,18.20
2018-04-10T07:50:28.826Z,13.90
2018-04-10T07:51:28.813Z,14.70
2018-04-10T07:52:28.677Z,16.70
2018-04-10T07:53:28.633Z,15.30
2018-04-10T07:54:28.522Z,14.70
2018-04-10T07:55:28.456Z,16.20
2018-04-10T07:56:28.372Z,13.30
2018-04-10T07:57:28.305Z,13.30
2018-04-10T07:58:28.977Z,14.60
2018-04-10T07:59:28.147Z,16.30
2018-04-10T08:00:28.064Z,12.50
2018-04-10T08:01:27.993Z,14.70
2018-04-10T08:02:27.898Z,12.20
2018-04-10T08:03:27.876Z,15.80
2018-04-10T08:04:27.769Z,14.10
2018-04-10T08:05:27.689Z,13.70
2018-04-10T08:06:27.598Z,13.40
2018-04-10T08:07:27.546Z,13.00
2018-04-10T08:08:27.444Z,11.30
2018-04-10T08:09:27.405Z,11.10
2018-04-10T08:10:27.293Z,11.30
2018-04-10T08:11:27.232Z,11.20
2018-04-10T08:12:27.143Z,13.70
2018-04-10T08:13:27.092Z,11.80
2018-04-10T08:14:27.005Z,11.00
2018-04-10T08:15:26.935Z,9.70
2018-04-10T08:16:26.842Z,14.40
2018-04-10T08:17:26.781Z,13.60
2018-04-10T08:18:26.698Z,12.20
2018-04-10T08:19:26.758Z,10.60
2018-04-10T08:20:26.539Z,12.90
2018-04-10T08:21:26.495Z,11.50
2018-04-10T08:22:26.382Z,12.70
2018-04-10T08:23:26.440Z,10.60
2018-04-10T08:24:26.241Z,10.30
2018-04-10T08:25:26.233Z,12.90
2018-04-10T08:26:26.076Z,11.40
2018-04-10T08:27:26.053Z,11.90
2018-04-10T08:28:25.940Z,10.30
2018-04-10T08:29:25.865Z,10.60
2018-04-10T08:30:25.798Z,10.30
2018-04-10T08:31:25.802Z,10.70
2018-04-10T08:32:25.636Z,10.80
2018-04-10T08:33:25.673Z,11.20
2018-04-10T08:34:25.512Z,9.80
2018-04-10T08:35:25.486Z,10.30
2018-04-10T08:36:25.317Z,9.20
2018-04-10T08:37:25.296Z,10.30
2018-04-10T08:38:25.163Z,9.50
2018-04-10T08:39:25.105Z,11.40
2018-04-10T08:40:25.110Z,10.10
2018-04-10T08:41:25.013Z,9.30
2018-04-10T08:42:24.875Z,8.10
2018-04-10T08:43:24.933Z,7.40
2018-04-10T08:44:24.724Z,8.80
2018-04-10T08:45:24.781Z,9.60
2018-04-10T08:46:24.572Z,6.20
2018-04-10T08:47:24.540Z,7.00
2018-04-10T08:48:24.420Z,8.70
2018-04-10T08:49:24.470Z,6.60
2018-04-10T08:50:24.279Z,6.50
2018-04-10T08:51:24.236Z,5.60
2018-04-10T08:52:24.120Z,6.70
2018-04-10T08:53:24.171Z,6.80
2018-04-10T08:54:23.969Z,12.30
2018-04-10T08:55:23.978Z,5.70
2018-04-10T08:56:23.844Z,8.40
2018-04-10T08:57:23.786Z,7.00
2018-04-10T08:58:23.676Z,8.60
2018-04-10T08:59:23.699Z,10.60
2018-04-10T09:00:23.553Z,7.10
2018-04-10T09:01:23.483Z,6.80
2018-04-10T09:02:23.364Z,8.30
2018-04-10T09:03:23.423Z,9.00
2018-04-10T09:04:23.220Z,6.50
2018-04-10T09:05:23.145Z,6.40
2018-04-10T09:06:23.083Z,7.00
2018-04-10T09:07:23.039Z,6.40
2018-04-10T09:08:22.914Z,7.20
2018-04-10T09:09:22.958Z,6.40
2018-04-10T09:10:22.866Z,6.50
2018-04-10T09:11:22.720Z,7.60
2018-04-10T09:12:22.632Z,8.60
2018-04-10T09:13:22.584Z,10.40
2018-04-10T09:14:22.460Z,8.80
2018-04-10T09:15:22.389Z,7.10
2018-04-10T09:16:22.323Z,7.10
2018-04-10T09:17:22.259Z,5.80
2018-04-10T09:18:22.176Z,8.30
2018-04-10T09:19:22.108Z,6.80
2018-04-10T09:20:22.066Z,6.40
2018-04-10T09:21:22.009Z,5.90
2018-04-10T09:22:21.866Z,8.10
2018-04-10T09:23:21.821Z,9.00
2018-04-10T09:24:21.692Z,5.90
2018-04-10T09:25:21.738Z,8.60
2018-04-10T09:26:21.545Z,8.10
2018-04-10T09:27:21.560Z,6.40
2018-04-10T09:28:21.401Z,5.70
2018-04-10T09:29:21.432Z,8.00
2018-04-10T09:30:21.246Z,7.90
2018-04-10T09:31:21.200Z,6.00
2018-04-10T09:32:21.101Z,6.90
2018-04-10T09:33:21.050Z,7.90
2018-04-10T09:34:20.940Z,6.60
2018-04-10T09:35:20.970Z,7.70
2018-04-10T09:36:20.781Z,9.60
2018-04-10T09:37:20.735Z,6.00
2018-04-10T09:38:20.643Z,10.90
2018-04-10T09:39:21.009Z,6.30
2018-04-10T09:40:20.494Z,5.90
2018-04-10T09:41:20.413Z,5.30
2018-04-10T09:42:20.371Z,4.90
2018-04-10T09:43:20.333Z,5.80
2018-04-10T09:44:20.200Z,8.40
2018-04-10T09:45:20.204Z,7.20
2018-04-10T09:46:20.018Z,7.40
2018-04-10T09:47:19.967Z,5.30
2018-04-10T09:48:19.891Z,6.40
2018-04-10T09:49:19.827Z,6.10
2018-04-10T09:50:19.743Z,6.00
2018-04-10T09:51:19.657Z,5.70
2018-04-10T09:52:19.565Z,6.90
2018-04-10T09:53:19.597Z,6.30
2018-04-10T09:54:19.413Z,7.80
2018-04-10T09:55:19.489Z,7.20
2018-04-10T09:56:19.267Z,7.90
2018-04-10T09:57:19.274Z,7.40
2018-04-10T09:58:19.115Z,6.10
2018-04-10T09:59:19.117Z,7.50
2018-04-10T10:00:18.972Z,5.60
2018-04-10T10:01:19.122Z,5.70
2018-04-10T10:02:18.806Z,6.10
2018-04-10T10:03:18.835Z,6.60
2018-04-10T10:04:18.711Z,7.30
2018-04-10T10:05:18.732Z,7.30
2018-04-10T10:06:18.503Z,7.00
2018-04-10T10:07:18.457Z,7.30
2018-04-10T10:08:18.393Z,5.20
2018-04-10T10:09:18.387Z,9.10
2018-04-10T10:10:18.231Z,8.50
2018-04-10T10:11:18.236Z,4.80
2018-04-10T10:12:18.047Z,7.50
2018-04-10T10:13:18.049Z,6.10
2018-04-10T10:14:17.925Z,8.90
2018-04-10T10:15:18.272Z,6.70
2018-04-10T10:16:17.753Z,4.90
2018-04-10T10:17:18.421Z,5.00
2018-04-10T10:18:17.604Z,6.30
2018-04-10T10:19:17.633Z,6.20
2018-04-10T10:20:17.445Z,9.30
2018-04-10T10:21:17.429Z,7.20
2018-04-10T10:22:17.352Z,4.90
2018-04-10T10:23:17.307Z,7.30
2018-04-10T10:24:17.160Z,9.80
2018-04-10T10:25:17.212Z,7.70
2018-04-10T10:26:16.996Z,7.00
2018-04-10T10:27:17.012Z,5.90
2018-04-10T10:28:16.843Z,5.20
2018-04-10T10:29:16.825Z,6.50
2018-04-10T10:30:16.695Z,6.00
2018-04-10T10:31:16.743Z,6.00
2018-04-10T10:32:16.547Z,5.80
2018-04-10T10:33:16.547Z,5.90
2018-04-10T10:34:16.384Z,4.90
2018-04-10T10:35:16.401Z,6.40
2018-04-10T10:36:16.282Z,6.30
2018-04-10T10:37:16.269Z,5.20
2018-04-10T10:38:16.086Z,5.90
2018-04-10T10:39:16.064Z,7.00
2018-04-10T10:40:15.948Z,3.60
2018-04-10T10:41:15.975Z,6.00
2018-04-10T10:42:15.788Z,6.60
2018-04-10T10:43:15.791Z,6.50
2018-04-10T10:44:15.644Z,5.90
2018-04-10T10:45:15.634Z,5.60
2018-04-10T10:46:15.475Z,6.30
2018-04-10T10:47:15.441Z,4.20
2018-04-10T10:48:15.332Z,5.10
2018-04-10T10:49:15.308Z,8.50
2018-04-10T10:50:15.204Z,6.00
2018-04-10T10:51:15.164Z,6.00
2018-04-10T10:52:15.089Z,7.90
2018-04-10T10:53:15.055Z,5.40
2018-04-10T10:54:14.887Z,6.70
2018-04-10T10:55:14.839Z,7.60
2018-04-10T10:56:14.749Z,5.70
2018-04-10T10:57:14.677Z,5.10
2018-04-10T10:58:14.588Z,5.70
2018-04-10T10:59:14.523Z,6.20
2018-04-10T11:00:14.432Z,5.70
2018-04-10T11:01:14.380Z,4.10
2018-04-10T11:02:14.281Z,4.40
2018-04-10T11:03:14.287Z,5.50
2018-04-10T11:04:14.126Z,5.20
2018-04-10T11:05:14.078Z,6.20
2018-04-10T11:06:14.111Z,5.40
2018-04-10T11:07:14.038Z,4.00
2018-04-10T11:08:13.830Z,4.90
2018-04-10T11:09:13.809Z,6.60
2018-04-10T11:10:13.675Z,4.50
2018-04-10T11:11:13.716Z,3.60
2018-04-10T11:12:13.547Z,5.30
2018-04-10T11:13:13.502Z,5.30
2018-04-10T11:14:13.399Z,3.80
2018-04-10T11:15:13.505Z,6.00
2018-04-10T11:16:13.234Z,3.80
2018-04-10T11:17:13.213Z,5.20
2018-04-10T11:18:13.087Z,6.10
2018-04-10T11:19:13.033Z,4.30
2018-04-10T11:20:12.945Z,4.70
2018-04-10T11:21:12.968Z,5.70
2018-04-10T11:22:13.556Z,4.40
2018-04-10T11:23:12.776Z,6.00
2018-04-10T11:24:12.645Z,7.30
2018-04-10T11:25:12.696Z,9.00
2018-04-10T11:26:12.504Z,8.30
2018-04-10T11:27:12.498Z,14.10
2018-04-10T11:28:12.387Z,6.50
2018-04-10T11:29:12.300Z,6.30
2018-04-10T11:30:12.215Z,6.00
2018-04-10T11:31:12.263Z,7.30
2018-04-10T11:32:12.062Z,5.50
2018-04-10T11:33:12.077Z,7.30
2018-04-10T11:34:11.915Z,5.50
2018-04-10T11:35:11.932Z,4.80
2018-04-10T11:36:11.855Z,4.60
2018-04-10T11:37:11.748Z,4.70
2018-04-10T11:38:11.645Z,5.40
2018-04-10T11:39:11.670Z,5.10
2018-04-10T11:40:11.504Z,5.50
2018-04-10T11:41:11.459Z,6.80
2018-04-10T11:42:11.382Z,4.70
2018-04-10T11:43:11.410Z,5.20
2018-04-10T11:44:11.177Z,3.70
2018-04-10T11:45:11.223Z,3.60
2018-04-10T11:46:11.027Z,6.60
2018-04-10T11:47:11.000Z,4.40
2018-04-10T11:48:10.897Z,7.00
2018-04-10T11:49:10.895Z,4.90
2018-04-10T11:50:10.729Z,7.00
2018-04-10T11:51:10.709Z,5.30
2018-04-10T11:52:10.612Z,5.50
2018-04-10T11:53:10.658Z,4.90
2018-04-10T11:54:10.459Z,5.00
2018-04-10T11:55:10.425Z,5.90
2018-04-10T11:56:10.309Z,5.90
2018-04-10T11:57:10.336Z,4.30
2018-04-10T11:58:10.233Z,3.50
2018-04-10T11:59:10.175Z,6.00
2018-04-10T12:00:10.015Z,3.70
2018-04-10T12:01:10.163Z,5.30
2018-04-10T12:02:09.854Z,3.00
2018-04-10T12:03:09.871Z,5.90
2018-04-10T12:04:09.751Z,4.70
2018-04-10T12:05:09.684Z,5.80
2018-04-10T12:06:10.567Z,5.00
2018-04-10T12:07:09.600Z,3.80
2018-04-10T12:08:09.435Z,6.80
2018-04-10T12:09:09.434Z,5.80
2018-04-10T12:10:09.284Z,4.50
2018-04-10T12:11:09.230Z,3.70
2018-04-10T12:12:09.134Z,5.50
2018-04-10T12:13:09.110Z,3.90
2018-04-10T12:14:09.024Z,4.80
2018-04-10T12:15:08.938Z,4.10
2018-04-10T12:16:08.872Z,5.10
2018-04-10T12:17:08.836Z,7.30
2018-04-10T12:18:08.695Z,6.80
2018-04-10T12:19:08.770Z,3.70
2018-04-10T12:20:08.548Z,3.90
2018-04-10T12:21:08.550Z,8.00
2018-04-10T12:22:08.428Z,6.10
2018-04-10T12:23:08.467Z,6.50
2018-04-10T12:24:08.315Z,8.00
2018-04-10T12:25:08.201Z,6.80
2018-04-10T12:26:08.112Z,4.50
2018-04-10T12:27:08.076Z,7.40
2018-04-10T12:28:07.968Z,5.20
2018-04-10T12:29:07.917Z,5.00
2018-04-10T12:30:07.831Z,4.00
2018-04-10T12:31:07.755Z,6.30
2018-04-10T12:32:07.673Z,12.40
2018-04-10T12:33:07.610Z,24.30
2018-04-10T12:34:07.525Z,5.40
2018-04-10T12:35:07.542Z,6.90
2018-04-10T12:36:07.413Z,6.00
2018-04-10T12:37:07.310Z,6.10
2018-04-10T12:38:07.251Z,4.60
2018-04-10T12:39:07.195Z,6.60
2018-04-10T12:40:07.108Z,4.00
2018-04-10T12:41:07.043Z,6.70
2018-04-10T12:42:06.951Z,6.80
2018-04-10T12:43:07.007Z,6.80
2018-04-10T12:44:06.840Z,5.10
2018-04-10T12:45:07.583Z,7.00
2018-04-10T12:46:06.653Z,5.80
2018-04-10T12:47:06.604Z,5.90
2018-04-10T12:48:06.483Z,5.20
2018-04-10T12:49:06.431Z,5.20
2018-04-10T12:50:06.363Z,5.70
2018-04-10T12:51:06.401Z,5.00
2018-04-10T12:52:06.279Z,5.00
2018-04-10T12:53:06.230Z,4.50
2018-04-10T12:54:06.048Z,5.40
2018-04-10T12:55:06.139Z,5.40
2018-04-10T12:56:05.908Z,4.00
2018-04-10T12:57:05.887Z,4.40
2018-04-10T12:58:05.761Z,6.00
2018-04-10T12:59:05.728Z,5.20
2018-04-10T13:00:05.605Z,3.50
2018-04-10T13:01:05.785Z,4.20
2018-04-10T13:02:05.465Z,5.30
2018-04-10T13:03:05.447Z,3.90
2018-04-10T13:04:05.338Z,3.70
2018-04-10T13:05:05.367Z,3.00
2018-04-10T13:06:05.272Z,4.30
2018-04-10T13:07:05.172Z,3.60
2018-04-10T13:08:05.022Z,3.90
2018-04-10T13:09:04.973Z,3.10
2018-04-10T13:10:04.869Z,4.80
2018-04-10T13:11:04.913Z,1.60
2018-04-10T13:12:04.776Z,3.30
2018-04-10T13:13:04.697Z,3.30
2018-04-10T13:14:04.591Z,1.70
2018-04-10T13:15:04.616Z,2.70
2018-04-10T13:16:04.455Z,2.50
2018-04-10T13:17:04.451Z,2.70
2018-04-10T13:18:04.287Z,3.20
2018-04-10T13:19:04.234Z,3.10
2018-04-10T13:20:04.159Z,1.50
2018-04-10T13:21:04.141Z,2.70
2018-04-10T13:22:04.082Z,1.40
2018-04-10T13:23:03.969Z,0.80
2018-04-10T13:24:03.849Z,2.10
2018-04-10T13:25:03.857Z,1.20
2018-04-10T13:26:03.746Z,1.20
2018-04-10T13:27:03.671Z,2.50
2018-04-10T13:28:03.567Z,2.00
2018-04-10T13:29:03.588Z,2.30
2018-04-10T13:30:03.402Z,1.80
2018-04-10T13:31:04.128Z,3.30
2018-04-10T13:32:03.292Z,3.10
2018-04-10T13:33:03.312Z,2.80
2018-04-10T13:34:03.118Z,2.60
2018-04-10T13:35:03.110Z,3.80
2018-04-10T13:36:02.975Z,5.20
2018-04-10T13:37:03.015Z,2.30
2018-04-10T13:38:03.582Z,3.50
2018-04-10T13:39:02.807Z,3.10
2018-04-10T13:40:02.671Z,4.10
2018-04-10T13:41:02.622Z,3.00
2018-04-10T13:42:02.513Z,4.90
2018-04-10T13:43:02.565Z,2.40
2018-04-10T13:44:02.390Z,4.50
2018-04-10T13:46:44.545Z,3.60
2018-04-10T13:47:44.530Z,4.70
2018-04-10T13:48:44.743Z,6.60
2018-04-10T13:49:44.364Z,3.40
2018-04-10T13:50:44.233Z,3.40
2018-04-10T13:51:44.408Z,3.60
2018-04-10T13:52:44.109Z,5.30
2018-04-10T13:53:44.113Z,4.60
2018-04-10T13:54:43.937Z,2.70
2018-04-10T13:55:43.984Z,4.20
2018-04-10T13:56:43.814Z,5.40
2018-04-10T13:57:43.802Z,3.70
2018-04-10T13:58:43.674Z,4.90
2018-04-10T13:59:43.711Z,5.60
2018-04-10T14:00:43.521Z,4.60
2018-04-10T14:01:43.451Z,3.30
2018-04-10T14:02:43.342Z,3.50
2018-04-10T14:03:43.324Z,3.60
2018-04-10T14:04:43.220Z,5.60
2018-04-10T14:05:43.227Z,4.70
2018-04-10T14:06:43.047Z,4.60
2018-04-10T14:07:43.443Z,3.80
2018-04-10T14:08:42.916Z,3.50
2018-04-10T14:09:42.858Z,5.20
2018-04-10T14:10:42.752Z,3.50
2018-04-10T14:11:42.755Z,3.50
2018-04-10T14:12:42.606Z,4.60
2018-04-10T14:13:42.599Z,4.00
2018-04-10T14:14:42.474Z,3.50
2018-04-10T14:15:42.507Z,4.20
2018-04-10T14:16:42.300Z,5.20
2018-04-10T14:17:42.307Z,4.80
2018-04-10T14:18:42.154Z,3.80
2018-04-10T14:19:42.232Z,4.00
2018-04-10T14:20:42.012Z,4.50
2018-04-10T14:21:42.012Z,5.50
2018-04-10T14:22:41.917Z,4.50
2018-04-10T14:23:41.920Z,5.50